createdAt,value
2023-01-13T00:02:00.205Z,9.75
2023-01-13T00:04:30.234Z,9.69
2023-01-13T00:07:00.146Z,9.67
2023-01-13T00:09:30.107Z,9.64
2023-01-13T00:12:00.059Z,9.61
2023-01-13T00:14:32.806Z,9.60
2023-01-13T00:17:02.764Z,9.56
2023-01-13T00:19:32.667Z,9.56
2023-01-13T00:22:02.521Z,9.53
2023-01-13T00:24:32.450Z,9.50
2023-01-13T00:27:02.369Z,9.49
2023-01-13T00:29:35.072Z,9.46
2023-01-13T00:32:04.924Z,9.41
2023-01-13T00:34:34.812Z,9.38
2023-01-13T00:37:04.956Z,9.35
2023-01-13T00:39:34.827Z,9.32
2023-01-13T00:42:17.059Z,9.29
2023-01-13T00:44:49.839Z,9.26
2023-01-13T00:47:19.964Z,9.22
2023-01-13T00:49:50.513Z,9.22
2023-01-13T00:52:20.669Z,9.20
2023-01-13T00:54:50.688Z,9.16
2023-01-13T00:57:20.596Z,9.14
2023-01-13T00:59:53.203Z,9.13
2023-01-13T01:02:23.255Z,9.10
2023-01-13T01:04:53.135Z,9.09
2023-01-13T01:07:23.028Z,9.07
2023-01-13T01:09:53.066Z,9.06
2023-01-13T01:12:23.144Z,9.07
2023-01-13T01:14:55.715Z,9.06
2023-01-13T01:17:25.556Z,9.03
2023-01-13T01:19:55.455Z,9.01
2023-01-13T01:22:25.472Z,9.01
2023-01-13T01:24:55.302Z,8.99
2023-01-13T01:27:25.305Z,8.97
2023-01-13T01:29:58.041Z,8.94
2023-01-13T01:32:27.977Z,8.94
2023-01-13T01:34:57.896Z,8.93
2023-01-13T01:37:27.805Z,8.91
2023-01-13T01:39:58.014Z,8.88
2023-01-13T01:42:42.903Z,8.86
2023-01-13T01:45:20.613Z,8.84
2023-01-13T01:47:53.031Z,8.82
2023-01-13T01:50:23.353Z,8.82
2023-01-13T01:52:57.139Z,8.81
2023-01-13T01:55:30.426Z,8.83
2023-01-13T01:58:05.598Z,8.81
2023-01-13T02:00:38.084Z,8.78
2023-01-13T02:03:10.103Z,8.78
2023-01-13T02:05:40.008Z,8.74
2023-01-13T02:08:11.855Z,8.72
2023-01-13T02:10:43.476Z,8.66
2023-01-13T02:13:13.614Z,8.64
2023-01-13T02:15:55.388Z,8.64
2023-01-13T02:18:38.492Z,8.62
2023-01-13T02:21:40.458Z,8.62
2023-01-13T02:24:46.515Z,8.62
2023-01-13T02:27:37.200Z,8.63
2023-01-13T02:30:33.850Z,8.64
2023-01-13T02:33:24.222Z,8.63
2023-01-13T02:35:59.977Z,8.63
2023-01-13T02:38:35.146Z,8.63
2023-01-13T02:41:21.190Z,8.63
2023-01-13T02:44:06.764Z,8.63
2023-01-13T02:46:46.545Z,8.63
2023-01-13T02:49:23.483Z,8.60
2023-01-13T02:51:56.140Z,8.60
2023-01-13T02:54:29.642Z,8.59
2023-01-13T02:57:02.470Z,8.58
2023-01-13T02:59:34.211Z,8.57
2023-01-13T03:02:09.450Z,8.56
2023-01-13T03:05:03.375Z,8.56
2023-01-13T03:07:48.790Z,8.56
2023-01-13T03:10:35.030Z,8.57
2023-01-13T03:13:18.719Z,8.56
2023-01-13T03:15:58.199Z,8.56
2023-01-13T03:18:40.704Z,8.58
2023-01-13T03:21:18.494Z,8.59
2023-01-13T03:23:53.951Z,8.60
2023-01-13T03:26:29.632Z,8.62
2023-01-13T03:29:05.419Z,8.64
2023-01-13T03:31:40.935Z,8.65
2023-01-13T03:34:19.025Z,8.69
2023-01-13T03:36:52.305Z,8.68
2023-01-13T03:39:29.536Z,8.70
2023-01-13T03:42:03.918Z,8.71
2023-01-13T03:44:34.283Z,8.74
2023-01-13T03:47:12.348Z,8.76
2023-01-13T03:49:51.581Z,8.77
2023-01-13T03:52:27.299Z,8.78
2023-01-13T03:55:01.880Z,8.78
2023-01-13T03:57:37.376Z,8.77
2023-01-13T04:00:10.219Z,8.76
2023-01-13T04:02:48.839Z,8.76
2023-01-13T04:05:22.051Z,8.77
2023-01-13T04:07:58.780Z,8.77
2023-01-13T04:10:34.187Z,8.75
2023-01-13T04:13:07.605Z,8.72
2023-01-13T04:15:41.315Z,8.71
2023-01-13T04:18:16.720Z,8.71
2023-01-13T04:20:51.909Z,8.69
2023-01-13T04:23:22.721Z,8.67
2023-01-13T04:25:53.498Z,8.66
2023-01-13T04:28:24.109Z,8.67
2023-01-13T04:30:54.340Z,8.66
2023-01-13T04:33:24.235Z,8.67
2023-01-13T04:35:56.684Z,8.70
2023-01-13T04:38:26.516Z,8.70
2023-01-13T04:40:56.333Z,8.72
2023-01-13T04:43:26.144Z,8.72
2023-01-13T04:45:55.987Z,8.74
2023-01-13T04:48:25.886Z,8.74
2023-01-13T04:50:58.510Z,8.77
2023-01-13T04:53:28.306Z,8.78
2023-01-13T04:55:58.058Z,8.81
2023-01-13T04:58:27.834Z,8.82
2023-01-13T05:00:57.906Z,8.84
2023-01-13T05:03:27.705Z,8.84
2023-01-13T05:06:00.058Z,8.86
2023-01-13T05:08:29.928Z,8.87
2023-01-13T05:11:23.155Z,8.89
2023-01-13T05:14:05.327Z,8.90
2023-01-13T05:16:47.532Z,8.90
2023-01-13T05:19:17.395Z,8.91
2023-01-13T05:22:02.288Z,8.91
2023-01-13T05:24:44.499Z,8.93
2023-01-13T05:27:14.313Z,8.92
2023-01-13T05:29:44.168Z,8.92
2023-01-13T05:32:14.062Z,8.92
2023-01-13T05:34:43.909Z,8.93
2023-01-13T05:37:16.522Z,8.94
2023-01-13T05:39:58.739Z,8.96
2023-01-13T05:42:41.173Z,8.95
2023-01-13T05:45:12.579Z,8.97
2023-01-13T05:47:42.569Z,8.96
2023-01-13T05:50:13.919Z,8.98
2023-01-13T05:52:46.688Z,8.97
2023-01-13T05:55:16.594Z,8.98
2023-01-13T05:57:46.472Z,8.96
2023-01-13T06:00:17.870Z,8.97
2023-01-13T06:02:47.710Z,8.96
2023-01-13T06:05:17.854Z,8.96
2023-01-13T06:07:51.021Z,8.95
2023-01-13T06:10:21.185Z,8.93
2023-01-13T06:12:50.930Z,8.94
2023-01-13T06:15:20.674Z,8.94
2023-01-13T06:17:50.465Z,8.95
2023-01-13T06:20:21.058Z,8.92
2023-01-13T06:22:55.376Z,8.90
2023-01-13T06:25:32.586Z,8.82
2023-01-13T06:28:03.200Z,8.75
2023-01-13T06:30:38.687Z,8.73
2023-01-13T06:33:13.911Z,8.70
2023-01-13T06:35:47.279Z,8.66
2023-01-13T06:38:22.196Z,8.62
2023-01-13T06:40:52.596Z,8.59
2023-01-13T06:43:19.812Z,8.57
2023-01-13T06:45:52.779Z,8.58
2023-01-13T06:48:25.666Z,8.59
2023-01-13T06:50:55.547Z,8.58
2023-01-13T06:53:28.380Z,8.58
2023-01-13T06:55:58.357Z,8.57
2023-01-13T06:58:28.352Z,8.57
2023-01-13T07:01:02.452Z,8.55
2023-01-13T07:03:32.315Z,8.54
2023-01-13T07:06:02.398Z,8.53
2023-01-13T07:08:34.905Z,8.51
2023-01-13T07:11:04.943Z,8.46
2023-01-13T07:13:47.101Z,8.43
2023-01-13T07:16:16.907Z,8.43
2023-01-13T07:18:46.705Z,8.40
2023-01-13T07:21:19.032Z,8.41
2023-01-13T07:23:51.410Z,8.40
2023-01-13T07:26:21.215Z,8.37
2023-01-13T07:28:50.992Z,8.37
2023-01-13T07:31:23.097Z,8.37
2023-01-13T07:33:52.920Z,8.38
2023-01-13T07:36:22.690Z,8.37
2023-01-13T07:38:55.581Z,8.38
2023-01-13T07:41:38.904Z,8.37
2023-01-13T07:44:10.944Z,8.38
2023-01-13T07:46:41.369Z,8.38
2023-01-13T07:49:12.963Z,8.40
2023-01-13T07:51:43.230Z,8.40
2023-01-13T07:54:15.678Z,8.43
2023-01-13T07:56:45.454Z,8.44
2023-01-13T07:59:15.202Z,8.46
2023-01-13T08:01:45.135Z,8.48
2023-01-13T08:04:14.893Z,8.51
2023-01-13T08:06:44.682Z,8.52
2023-01-13T08:09:17.084Z,8.55
2023-01-13T08:12:06.835Z,8.57
2023-01-13T08:14:36.848Z,8.56
2023-01-13T08:17:06.726Z,8.59
2023-01-13T08:19:36.540Z,8.59
2023-01-13T08:22:06.324Z,8.59
2023-01-13T08:24:38.684Z,8.61
2023-01-13T08:27:08.616Z,8.62
2023-01-13T08:29:38.431Z,8.63
2023-01-13T08:32:09.106Z,8.65
2023-01-13T08:34:39.803Z,8.68
2023-01-13T08:37:09.615Z,8.70
2023-01-13T08:39:42.394Z,8.70
2023-01-13T08:42:12.372Z,8.72
2023-01-13T08:44:42.208Z,8.75
2023-01-13T08:47:12.354Z,8.74
2023-01-13T08:49:42.390Z,8.72
2023-01-13T08:52:12.392Z,8.70
2023-01-13T08:54:44.850Z,8.67
2023-01-13T08:57:15.360Z,8.62
2023-01-13T08:59:46.236Z,8.57
2023-01-13T09:02:17.299Z,8.53
2023-01-13T09:04:47.928Z,8.49
2023-01-13T09:07:18.221Z,8.43
2023-01-13T09:09:51.440Z,8.37
2023-01-13T09:12:33.662Z,8.35
2023-01-13T09:15:03.849Z,8.34
2023-01-13T09:17:33.743Z,8.32
2023-01-13T09:20:03.967Z,8.32
2023-01-13T09:22:36.469Z,8.30
2023-01-13T09:25:10.006Z,8.29
2023-01-13T09:27:39.848Z,8.28
2023-01-13T09:30:11.295Z,8.28
2023-01-13T09:32:41.257Z,8.31
2023-01-13T09:35:09.937Z,8.32
2023-01-13T09:37:41.220Z,8.34
2023-01-13T09:40:18.603Z,8.34
2023-01-13T09:43:06.404Z,8.34
2023-01-13T09:45:41.697Z,8.35
2023-01-13T09:48:19.559Z,8.34
2023-01-13T09:51:00.027Z,8.34
2023-01-13T09:53:33.425Z,8.33
2023-01-13T09:56:06.411Z,8.35
2023-01-13T09:58:36.316Z,8.35
2023-01-13T10:01:18.063Z,8.36
2023-01-13T10:03:49.495Z,8.36
2023-01-13T10:06:22.971Z,8.37
2023-01-13T10:08:53.451Z,8.37
2023-01-13T10:11:39.982Z,8.36
2023-01-13T10:14:18.652Z,8.36
2023-01-13T10:16:54.243Z,8.37
2023-01-13T10:19:29.459Z,8.37
2023-01-13T10:22:21.096Z,8.41
2023-01-13T10:25:20.570Z,8.44
2023-01-13T10:27:55.720Z,8.47
2023-01-13T10:30:31.657Z,8.50
2023-01-13T10:33:03.768Z,8.53
2023-01-13T10:35:52.700Z,8.55
2023-01-13T10:38:24.235Z,8.58
2023-01-13T10:40:55.837Z,8.61
2023-01-13T10:43:29.215Z,8.63
2023-01-13T10:46:05.342Z,8.64
2023-01-13T10:48:38.305Z,8.65
2023-01-13T10:51:29.988Z,8.69
2023-01-13T10:54:03.491Z,8.68
2023-01-13T10:56:35.277Z,8.71
2023-01-13T10:59:27.214Z,8.76
2023-01-13T11:02:12.960Z,8.77
2023-01-13T11:05:04.610Z,8.80
2023-01-13T11:07:37.783Z,8.82
2023-01-13T11:10:23.968Z,8.85
2023-01-13T11:13:01.812Z,8.86
2023-01-13T11:15:43.762Z,8.89
2023-01-13T11:18:22.330Z,8.91
2023-01-13T11:20:55.029Z,8.93
2023-01-13T11:23:28.120Z,8.95
2023-01-13T11:26:01.731Z,8.98
2023-01-13T11:28:42.090Z,9.02
2023-01-13T11:31:23.212Z,9.06
2023-01-13T11:34:00.293Z,9.10
2023-01-13T11:36:35.917Z,9.08
2023-01-13T11:39:19.411Z,9.06
2023-01-13T11:42:15.165Z,9.04
2023-01-13T11:44:51.692Z,9.02
2023-01-13T11:47:26.688Z,9.00
2023-01-13T11:49:57.145Z,9.00
2023-01-13T11:52:33.625Z,9.02
2023-01-13T11:55:23.001Z,9.04
2023-01-13T11:58:12.349Z,9.05
2023-01-13T12:00:58.918Z,9.05
2023-01-13T12:03:38.760Z,9.06
2023-01-13T12:06:22.630Z,9.03
2023-01-13T12:09:16.849Z,9.02
2023-01-13T12:12:14.667Z,9.02
2023-01-13T12:15:00.969Z,9.01
2023-01-13T12:17:42.078Z,9.02
2023-01-13T12:20:28.933Z,9.03
2023-01-13T12:23:04.239Z,9.04
2023-01-13T12:25:39.803Z,9.06
2023-01-13T12:28:16.858Z,9.07
2023-01-13T12:30:51.962Z,9.13
2023-01-13T12:33:31.094Z,9.15
2023-01-13T12:36:11.887Z,9.19
2023-01-13T12:38:48.373Z,9.21
2023-01-13T12:41:27.396Z,9.19
2023-01-13T12:44:09.718Z,9.18
2023-01-13T12:46:53.498Z,9.20
2023-01-13T12:49:45.988Z,9.22
2023-01-13T12:52:21.218Z,9.29
2023-01-13T12:55:22.613Z,9.33
2023-01-13T12:58:05.731Z,9.32
2023-01-13T13:00:38.866Z,9.35
2023-01-13T13:03:30.379Z,9.35
2023-01-13T13:06:09.420Z,9.34
2023-01-13T13:09:03.717Z,9.37
2023-01-13T13:11:58.082Z,9.37
2023-01-13T13:14:57.940Z,9.36
2023-01-13T13:17:43.554Z,9.34
2023-01-13T13:20:43.185Z,9.34
2023-01-13T13:23:48.405Z,9.32
2023-01-13T13:26:31.093Z,9.34
2023-01-13T13:29:42.578Z,9.35
2023-01-13T13:32:26.805Z,9.37
2023-01-13T13:35:08.513Z,9.38
2023-01-13T13:38:01.949Z,9.37
2023-01-13T13:40:47.986Z,9.35
2023-01-13T13:43:35.400Z,9.33
2023-01-13T13:46:17.626Z,9.31
2023-01-13T13:48:55.509Z,9.31
2023-01-13T13:51:30.952Z,9.32
2023-01-13T13:54:02.924Z,9.33
2023-01-13T13:56:40.482Z,9.33
2023-01-13T13:59:15.335Z,9.34
2023-01-13T14:01:48.150Z,9.32
2023-01-13T14:04:21.917Z,9.29
2023-01-13T14:06:56.870Z,9.29
2023-01-13T14:09:28.762Z,9.25
2023-01-13T14:12:01.175Z,9.22
2023-01-13T14:14:33.568Z,9.20
2023-01-13T14:17:03.783Z,9.19
2023-01-13T14:19:35.921Z,9.19
2023-01-13T14:22:07.764Z,9.20
2023-01-13T14:24:51.442Z,9.20
2023-01-13T14:27:22.182Z,9.16
2023-01-13T14:29:55.804Z,9.15
2023-01-13T14:32:31.964Z,9.13
2023-01-13T14:35:01.903Z,9.12
2023-01-13T14:37:37.845Z,9.08
2023-01-13T14:40:08.499Z,9.04
2023-01-13T14:42:38.348Z,9.03
2023-01-13T14:45:30.599Z,9.00
2023-01-13T14:48:02.912Z,8.99
2023-01-13T14:50:35.270Z,8.95
2023-01-13T14:53:05.412Z,8.94
2023-01-13T14:55:37.456Z,8.90
2023-01-13T14:58:28.644Z,8.84
2023-01-13T15:01:28.260Z,8.73
2023-01-13T15:04:18.796Z,8.62
2023-01-13T15:06:51.694Z,8.53
2023-01-13T15:09:27.786Z,8.47
2023-01-13T15:11:59.169Z,8.44
2023-01-13T15:14:34.244Z,8.44
2023-01-13T15:17:04.005Z,8.42
2023-01-13T15:19:36.518Z,8.41
2023-01-13T15:22:06.326Z,8.41
2023-01-13T15:24:36.141Z,8.44
2023-01-13T15:27:16.089Z,8.43
2023-01-13T15:29:45.922Z,8.45
2023-01-13T15:32:21.080Z,8.47
2023-01-13T15:34:53.911Z,8.48
2023-01-13T15:37:25.700Z,8.48
2023-01-13T15:39:55.591Z,8.49
2023-01-13T15:42:37.788Z,8.49
2023-01-13T15:45:20.707Z,8.47
2023-01-13T15:47:50.484Z,8.43
2023-01-13T15:50:23.130Z,8.40
2023-01-13T15:52:52.983Z,8.36
2023-01-13T15:55:22.746Z,8.34
2023-01-13T15:57:53.727Z,8.32
2023-01-13T16:00:25.076Z,8.31
2023-01-13T16:02:54.949Z,8.30
2023-01-13T16:05:27.347Z,8.30
2023-01-13T16:07:57.337Z,8.29
2023-01-13T16:10:29.205Z,8.31
2023-01-13T16:12:59.237Z,8.35
2023-01-13T16:15:29.036Z,8.35
2023-01-13T16:18:00.613Z,8.37
2023-01-13T16:20:33.894Z,8.40
2023-01-13T16:23:03.957Z,8.42
2023-01-13T16:25:33.869Z,8.45
2023-01-13T16:28:03.703Z,8.48
2023-01-13T16:30:35.848Z,8.48
2023-01-13T16:33:05.909Z,8.49
2023-01-13T16:35:44.738Z,8.50
2023-01-13T16:38:28.105Z,8.50
2023-01-13T16:41:00.090Z,8.49
2023-01-13T16:43:29.861Z,8.50
2023-01-13T16:45:59.677Z,8.48
2023-01-13T16:48:29.901Z,8.51
2023-01-13T16:51:02.366Z,8.51
2023-01-13T16:53:32.117Z,8.51
2023-01-13T16:56:01.931Z,8.51
2023-01-13T16:58:31.719Z,8.53
2023-01-13T17:01:01.610Z,8.53
2023-01-13T17:03:36.323Z,8.56
2023-01-13T17:06:09.410Z,8.58
2023-01-13T17:08:40.546Z,8.61
2023-01-13T17:11:10.364Z,8.61
2023-01-13T17:13:40.365Z,8.64
2023-01-13T17:16:18.621Z,8.68
2023-01-13T17:18:48.853Z,8.66
2023-01-13T17:21:21.619Z,8.69
2023-01-13T17:23:51.769Z,8.71
2023-01-13T17:26:32.317Z,8.74
2023-01-13T17:29:03.724Z,8.74
2023-01-13T17:31:33.623Z,8.78
2023-01-13T17:34:04.709Z,8.78
2023-01-13T17:36:38.070Z,8.75
2023-01-13T17:39:08.524Z,8.73
2023-01-13T17:41:38.303Z,8.74
2023-01-13T17:44:08.152Z,8.72
2023-01-13T17:46:38.236Z,8.70
2023-01-13T17:49:07.990Z,8.69
2023-01-13T17:51:40.571Z,8.68
2023-01-13T17:54:12.535Z,8.67
2023-01-13T17:56:42.628Z,8.65
2023-01-13T17:59:12.803Z,8.59
2023-01-13T18:01:43.498Z,8.54
2023-01-13T18:04:17.955Z,8.52
2023-01-13T18:06:51.772Z,8.50
2023-01-13T18:09:23.011Z,8.49
2023-01-13T18:11:54.664Z,8.51
2023-01-13T18:14:25.578Z,8.52
2023-01-13T18:16:58.466Z,8.52
2023-01-13T18:19:40.667Z,8.55
2023-01-13T18:22:28.413Z,8.56
2023-01-13T18:25:10.595Z,8.58
2023-01-13T18:27:41.944Z,8.61
2023-01-13T18:30:14.022Z,8.63
2023-01-13T18:32:44.090Z,8.65
2023-01-13T18:35:14.219Z,8.69
2023-01-13T18:37:46.989Z,8.68
2023-01-13T18:40:17.474Z,8.70
2023-01-13T18:42:58.488Z,8.72
2023-01-13T18:45:30.088Z,8.70
2023-01-13T18:48:02.886Z,8.71
2023-01-13T18:50:34.764Z,8.72
2023-01-13T18:53:08.251Z,8.73
2023-01-13T18:55:40.312Z,8.71
2023-01-13T18:58:10.344Z,8.70
2023-01-13T19:00:41.516Z,8.69
2023-01-13T19:03:13.034Z,8.70
2023-01-13T19:05:43.115Z,8.70
2023-01-13T19:08:15.965Z,8.70
2023-01-13T19:10:46.678Z,8.70
2023-01-13T19:13:18.631Z,8.71
2023-01-13T19:15:48.492Z,8.71
2023-01-13T19:18:21.348Z,8.72
2023-01-13T19:20:51.143Z,8.72
2023-01-13T19:23:23.622Z,8.71
2023-01-13T19:25:54.391Z,8.69
2023-01-13T19:28:24.870Z,8.66
2023-01-13T19:30:54.889Z,8.68
2023-01-13T19:33:24.753Z,8.68
2023-01-13T19:35:56.388Z,8.68
2023-01-13T19:38:30.780Z,8.65
2023-01-13T19:41:02.619Z,8.63
2023-01-13T19:43:44.789Z,8.62
2023-01-13T19:46:16.111Z,8.58
2023-01-13T19:48:46.097Z,8.53
2023-01-13T19:51:15.964Z,8.45
2023-01-13T19:53:48.433Z,8.40
2023-01-13T19:56:18.181Z,8.35
2023-01-13T19:58:50.998Z,8.30
2023-01-13T20:01:21.274Z,8.26
2023-01-13T20:03:51.130Z,8.21
2023-01-13T20:06:20.892Z,8.19
2023-01-13T20:08:53.436Z,8.19
2023-01-13T20:11:31.610Z,8.17
2023-01-13T20:14:02.277Z,8.15
2023-01-13T20:16:34.303Z,8.15
2023-01-13T20:19:04.390Z,8.13
2023-01-13T20:21:34.525Z,8.13
2023-01-13T20:24:07.890Z,8.15
2023-01-13T20:26:40.008Z,8.17
2023-01-13T20:29:09.796Z,8.16
2023-01-13T20:31:39.619Z,8.16
2023-01-13T20:34:11.644Z,8.14
2023-01-13T20:36:43.724Z,8.11
2023-01-13T20:39:17.571Z,8.08
2023-01-13T20:41:59.786Z,8.06
2023-01-13T20:44:29.862Z,8.07
2023-01-13T20:46:59.771Z,8.06
2023-01-13T20:49:30.516Z,8.05
2023-01-13T20:52:01.239Z,8.10
2023-01-13T20:54:34.102Z,8.12
2023-01-13T20:57:03.899Z,8.14
2023-01-13T20:59:33.762Z,8.17
2023-01-13T21:02:03.682Z,8.18
2023-01-13T21:04:33.726Z,8.21
2023-01-13T21:07:03.807Z,8.23
2023-01-13T21:09:36.621Z,8.27
2023-01-13T21:12:19.436Z,8.29
2023-01-13T21:15:01.728Z,8.32
2023-01-13T21:17:43.917Z,8.33
2023-01-13T21:20:15.835Z,8.33
2023-01-13T21:22:48.164Z,8.35
2023-01-13T21:25:21.303Z,8.38
2023-01-13T21:27:51.265Z,8.35
2023-01-13T21:30:21.206Z,8.35
2023-01-13T21:32:50.996Z,8.34
2023-01-13T21:35:20.891Z,8.32
2023-01-13T21:37:51.118Z,8.33
2023-01-13T21:40:23.770Z,8.34
2023-01-13T21:43:05.906Z,8.36
2023-01-13T21:45:48.166Z,8.38
2023-01-13T21:48:17.918Z,8.40
2023-01-13T21:50:48.038Z,8.41
2023-01-13T21:53:18.015Z,8.42
2023-01-13T21:55:53.347Z,8.40
2023-01-13T21:58:23.129Z,8.40
2023-01-13T22:00:52.936Z,8.38
2023-01-13T22:03:22.780Z,8.38
2023-01-13T22:05:57.439Z,8.38
2023-01-13T22:08:27.286Z,8.37
2023-01-13T22:11:00.516Z,8.40
2023-01-13T22:13:42.758Z,8.41
2023-01-13T22:16:12.649Z,8.41
2023-01-13T22:18:42.493Z,8.43
2023-01-13T22:21:12.254Z,8.44
2023-01-13T22:23:42.031Z,8.44
2023-01-13T22:26:14.773Z,8.47
2023-01-13T22:28:44.576Z,8.46
2023-01-13T22:31:16.203Z,8.46
2023-01-13T22:33:48.009Z,8.46
2023-01-13T22:36:19.199Z,8.47
2023-01-13T22:38:49.001Z,8.46
2023-01-13T22:41:21.358Z,8.48
2023-01-13T22:43:51.188Z,8.44
2023-01-13T22:46:22.328Z,8.45
2023-01-13T22:48:53.914Z,8.42
2023-01-13T22:51:23.777Z,8.37
2023-01-13T22:53:54.049Z,8.33
2023-01-13T22:56:28.166Z,8.30
2023-01-13T22:58:58.577Z,8.26
2023-01-13T23:01:29.584Z,8.24
2023-01-13T23:03:59.806Z,8.21
2023-01-13T23:06:31.588Z,8.18
2023-01-13T23:09:01.791Z,8.15
2023-01-13T23:11:34.486Z,8.13
2023-01-13T23:14:06.306Z,8.12
2023-01-13T23:16:39.048Z,8.09
2023-01-13T23:19:09.723Z,8.08
2023-01-13T23:21:41.007Z,8.07
2023-01-13T23:24:11.451Z,8.05
2023-01-13T23:26:44.375Z,8.02
2023-01-13T23:29:16.054Z,8.00
2023-01-13T23:31:46.067Z,7.97
2023-01-13T23:34:15.984Z,7.96
2023-01-13T23:36:45.865Z,7.97
2023-01-13T23:39:15.670Z,7.96
2023-01-13T23:41:48.031Z,7.96
2023-01-13T23:44:17.847Z,7.97
2023-01-13T23:46:47.635Z,8.01
2023-01-13T23:49:17.508Z,8.05
2023-01-13T23:51:47.368Z,8.06
2023-01-13T23:54:17.147Z,8.10
2023-01-13T23:56:52.628Z,8.13
2023-01-13T23:59:22.425Z,8.14
